createdAt,value
2018-10-05T00:01:31.762Z,8.83
2018-10-05T00:04:35.196Z,7.47
2018-10-05T00:07:38.599Z,5.90
2018-10-05T00:10:42.014Z,9.03
2018-10-05T00:13:45.512Z,8.33
2018-10-05T00:16:49.410Z,9.97
2018-10-05T00:19:52.824Z,11.37
2018-10-05T00:22:56.330Z,6.93
2018-10-05T00:25:59.869Z,7.77
2018-10-05T00:29:03.382Z,7.70
2018-10-05T00:32:06.878Z,7.67
2018-10-05T00:35:10.350Z,11.40
2018-10-05T00:38:13.927Z,12.37
2018-10-05T00:41:18.050Z,10.20
2018-10-05T00:44:21.457Z,7.17
2018-10-05T00:47:25.005Z,11.97
2018-10-05T00:50:28.511Z,13.67
2018-10-05T00:53:32.045Z,11.63
2018-10-05T00:56:35.450Z,13.50
2018-10-05T00:59:38.825Z,9.73
2018-10-05T01:02:42.296Z,13.03
2018-10-05T01:05:45.754Z,8.50
2018-10-05T01:08:49.167Z,10.80
2018-10-05T01:11:52.582Z,7.35
2018-10-05T01:14:56.005Z,11.43
2018-10-05T01:18:00.499Z,10.27
2018-10-05T01:21:03.894Z,11.97
2018-10-05T01:24:07.316Z,11.63
2018-10-05T01:27:10.803Z,9.33
2018-10-05T01:30:14.289Z,9.00
2018-10-05T01:33:17.698Z,17.67
2018-10-05T01:36:21.081Z,11.63
2018-10-05T01:39:24.533Z,10.47
2018-10-05T01:42:27.900Z,11.77
2018-10-05T01:45:31.296Z,11.63
2018-10-05T01:48:34.703Z,10.40
2018-10-05T01:51:38.633Z,11.73
2018-10-05T01:54:42.111Z,7.93
2018-10-05T01:57:45.594Z,12.13
2018-10-05T02:00:49.027Z,10.10
2018-10-05T02:03:52.538Z,11.27
2018-10-05T02:06:56.018Z,7.17
2018-10-05T02:09:59.411Z,7.87
2018-10-05T02:13:02.797Z,9.07
2018-10-05T02:16:06.737Z,11.13
2018-10-05T02:19:10.325Z,12.07
2018-10-05T02:22:13.732Z,9.03
2018-10-05T02:25:17.142Z,10.13
2018-10-05T02:28:20.525Z,8.50
2018-10-05T02:31:23.936Z,10.60
2018-10-05T02:34:27.417Z,9.63
2018-10-05T02:37:30.823Z,7.70
2018-10-05T02:40:34.244Z,7.80
2018-10-05T02:43:37.597Z,8.57
2018-10-05T02:46:41.027Z,8.83
2018-10-05T02:49:44.441Z,10.57
2018-10-05T02:52:47.826Z,11.20
2018-10-05T02:55:51.333Z,7.10
2018-10-05T02:58:54.732Z,11.33
2018-10-05T03:02:09.364Z,11.87
2018-10-05T03:05:12.797Z,8.40
2018-10-05T03:08:16.215Z,12.53
2018-10-05T03:11:19.582Z,6.27
2018-10-05T03:14:23.049Z,5.80
2018-10-05T03:17:26.504Z,8.47
2018-10-05T03:20:29.887Z,8.00
2018-10-05T03:23:33.314Z,8.10
2018-10-05T03:26:36.681Z,7.77
2018-10-05T03:29:40.084Z,7.57
2018-10-05T03:32:43.484Z,5.70
2018-10-05T03:35:46.906Z,9.90
2018-10-05T03:38:50.309Z,7.67
2018-10-05T03:41:53.703Z,10.80
2018-10-05T03:44:57.114Z,7.70
2018-10-05T03:48:00.486Z,9.10
2018-10-05T03:51:03.964Z,8.07
2018-10-05T03:54:07.489Z,9.47
2018-10-05T03:57:10.902Z,10.60
2018-10-05T04:00:14.533Z,10.03
2018-10-05T04:03:18.105Z,7.50
2018-10-05T04:06:21.633Z,8.60
2018-10-05T04:09:25.135Z,11.00
2018-10-05T04:12:28.635Z,9.33
2018-10-05T04:15:32.132Z,9.73
2018-10-05T04:18:35.617Z,9.87
2018-10-05T04:21:39.131Z,12.70
2018-10-05T04:24:42.626Z,9.90
2018-10-05T04:27:46.136Z,10.83
2018-10-05T04:30:49.634Z,7.53
2018-10-05T04:33:53.142Z,10.00
2018-10-05T04:36:56.664Z,11.20
2018-10-05T04:40:00.178Z,12.90
2018-10-05T04:43:03.650Z,8.43
2018-10-05T04:46:07.345Z,9.90
2018-10-05T04:49:11.026Z,8.20
2018-10-05T04:52:14.565Z,10.47
2018-10-05T04:55:18.216Z,14.60
2018-10-05T04:58:21.793Z,18.20
2018-10-05T05:01:25.275Z,14.03
2018-10-05T05:04:28.780Z,15.97
2018-10-05T05:07:32.504Z,11.45
2018-10-05T05:10:35.986Z,11.33
2018-10-05T05:13:39.548Z,8.83
2018-10-05T05:16:42.984Z,9.10
2018-10-05T05:19:46.559Z,10.27
2018-10-05T05:22:50.031Z,10.43
2018-10-05T05:25:53.526Z,7.27
2018-10-05T05:28:57.377Z,12.00
2018-10-05T05:32:00.801Z,7.73
2018-10-05T05:35:04.347Z,13.90
2018-10-05T05:38:07.816Z,8.55
2018-10-05T05:41:11.391Z,9.03
2018-10-05T05:44:14.894Z,9.00
2018-10-05T05:47:18.327Z,8.37
2018-10-05T05:50:21.813Z,11.57
2018-10-05T05:53:25.212Z,7.30
2018-10-05T05:56:28.639Z,10.63
2018-10-05T05:59:32.207Z,10.27
2018-10-05T06:02:35.791Z,14.00
2018-10-05T06:05:39.245Z,13.77
2018-10-05T06:08:42.751Z,13.43
2018-10-05T06:11:46.278Z,13.07
2018-10-05T06:14:49.752Z,11.33
2018-10-05T06:17:53.236Z,13.60
2018-10-05T06:20:56.734Z,11.17
2018-10-05T06:24:00.296Z,9.67
2018-10-05T06:27:03.746Z,12.07
2018-10-05T06:30:07.205Z,15.03
2018-10-05T06:33:10.705Z,10.67
2018-10-05T06:36:14.142Z,13.10
2018-10-05T06:39:17.540Z,13.90
2018-10-05T06:42:21.036Z,8.63
2018-10-05T06:45:24.464Z,8.23
2018-10-05T06:48:28.044Z,16.17
2018-10-05T06:51:31.651Z,15.63
2018-10-05T06:54:35.060Z,14.63
2018-10-05T06:57:38.554Z,12.63
2018-10-05T07:00:42.063Z,12.80
2018-10-05T07:03:45.459Z,13.03
2018-10-05T07:06:51.111Z,11.73
2018-10-05T07:09:54.517Z,14.25
2018-10-05T07:12:57.942Z,15.33
2018-10-05T07:16:01.445Z,12.43
2018-10-05T07:19:04.898Z,15.63
2018-10-05T07:22:08.357Z,15.57
2018-10-05T07:25:11.954Z,13.03
2018-10-05T07:28:15.472Z,12.05
2018-10-05T07:31:18.967Z,16.55
2018-10-05T07:34:22.461Z,12.07
2018-10-05T07:37:25.999Z,17.30
2018-10-05T07:40:29.450Z,14.73
2018-10-05T07:43:32.833Z,10.97
2018-10-05T07:46:36.249Z,10.20
2018-10-05T07:49:39.641Z,12.33
2018-10-05T07:52:43.089Z,12.60
2018-10-05T07:55:46.856Z,16.45
2018-10-05T07:58:50.373Z,13.03
2018-10-05T08:01:53.866Z,11.20
2018-10-05T08:04:57.261Z,13.37
2018-10-05T08:08:00.663Z,10.67
2018-10-05T08:11:04.101Z,11.05
2018-10-05T08:14:07.581Z,12.82
2018-10-05T08:17:10.967Z,12.33
2018-10-05T08:20:14.357Z,11.40
2018-10-05T08:23:17.759Z,13.53
2018-10-05T08:26:21.153Z,14.47
2018-10-05T08:29:24.627Z,11.53
2018-10-05T08:32:28.109Z,15.40
2018-10-05T08:35:31.569Z,12.13
2018-10-05T08:38:35.056Z,13.03
2018-10-05T08:41:38.470Z,12.27
2018-10-05T08:44:41.871Z,10.93
2018-10-05T08:47:45.281Z,9.88
2018-10-05T08:50:48.656Z,11.97
2018-10-05T08:53:52.065Z,10.93
2018-10-05T08:56:55.473Z,13.70
2018-10-05T08:59:58.848Z,12.73
2018-10-05T09:03:02.285Z,14.13
2018-10-05T09:06:05.810Z,13.43
2018-10-05T09:09:09.297Z,13.07
2018-10-05T09:12:12.685Z,14.27
2018-10-05T09:15:16.111Z,13.25
2018-10-05T09:18:19.654Z,13.18
2018-10-05T09:21:22.897Z,14.47
2018-10-05T09:24:26.275Z,13.93
2018-10-05T09:27:29.669Z,12.73
2018-10-05T09:30:33.100Z,15.63
2018-10-05T09:33:36.465Z,14.43
2018-10-05T09:36:39.904Z,15.47
2018-10-05T09:39:43.290Z,14.23
2018-10-05T09:42:47.753Z,19.77
2018-10-05T09:45:51.186Z,15.23
2018-10-05T09:48:54.594Z,13.10
2018-10-05T09:51:57.995Z,13.32
2018-10-05T09:55:01.387Z,12.65
2018-10-05T09:58:04.836Z,14.95
2018-10-05T10:01:13.625Z,13.70
2018-10-05T10:04:17.028Z,15.72
2018-10-05T10:07:20.402Z,15.60
2018-10-05T10:10:24.087Z,11.77
2018-10-05T10:13:27.532Z,18.00
2018-10-05T10:16:30.932Z,12.50
2018-10-05T10:19:34.348Z,15.57
2018-10-05T10:22:37.773Z,14.40
2018-10-05T10:25:41.148Z,12.10
2018-10-05T10:28:44.709Z,12.67
2018-10-05T10:31:47.988Z,18.12
2018-10-05T10:34:51.432Z,13.67
2018-10-05T10:37:54.966Z,13.30
2018-10-05T10:40:58.328Z,13.25
2018-10-05T10:44:01.840Z,15.10
2018-10-05T10:47:05.352Z,11.65
2018-10-05T10:50:08.837Z,13.38
2018-10-05T10:53:12.372Z,13.70
2018-10-05T10:56:15.867Z,12.58
2018-10-05T10:59:19.405Z,12.47
2018-10-05T11:02:22.841Z,12.07
2018-10-05T11:05:26.360Z,13.00
2018-10-05T11:08:29.863Z,11.30
2018-10-05T11:11:33.363Z,10.18
2018-10-05T11:14:37.058Z,9.90
2018-10-05T11:17:40.625Z,12.65
2018-10-05T11:20:44.073Z,11.23
2018-10-05T11:23:47.469Z,13.10
2018-10-05T11:26:50.976Z,12.98
2018-10-05T11:29:54.474Z,11.03
2018-10-05T11:32:57.988Z,12.93
2018-10-05T11:36:01.375Z,12.43
2018-10-05T11:39:05.824Z,11.90
2018-10-05T11:42:09.195Z,11.13
2018-10-05T11:45:12.693Z,10.53
2018-10-05T11:48:16.183Z,9.73
2018-10-05T11:51:19.705Z,11.05
2018-10-05T11:54:23.229Z,8.55
2018-10-05T11:57:26.829Z,7.50
2018-10-05T12:00:31.121Z,10.95
2018-10-05T12:03:34.638Z,7.13
2018-10-05T12:06:38.133Z,8.60
2018-10-05T12:09:41.864Z,7.73
2018-10-05T12:12:45.345Z,8.73
2018-10-05T12:15:48.833Z,5.50
2018-10-05T12:18:52.372Z,9.38
2018-10-05T12:21:55.842Z,7.15
2018-10-05T12:24:59.300Z,6.80
2018-10-05T12:28:02.742Z,11.63
2018-10-05T12:31:06.196Z,6.90
2018-10-05T12:34:09.618Z,7.92
2018-10-05T12:37:13.059Z,10.08
2018-10-05T12:40:16.592Z,9.65
2018-10-05T12:43:19.990Z,5.87
2018-10-05T12:46:23.454Z,6.83
2018-10-05T12:49:26.841Z,8.03
2018-10-05T12:52:30.248Z,4.60
2018-10-05T12:55:33.608Z,5.80
2018-10-05T12:58:36.981Z,7.97
2018-10-05T13:01:40.455Z,7.80
2018-10-05T13:04:44.008Z,6.12
2018-10-05T13:07:47.427Z,5.90
2018-10-05T13:10:50.850Z,8.00
2018-10-05T13:13:54.265Z,8.93
2018-10-05T13:16:57.774Z,13.85
2018-10-05T13:20:01.224Z,7.30
2018-10-05T13:23:04.724Z,5.23
2018-10-05T13:26:09.326Z,7.60
2018-10-05T13:29:12.807Z,5.53
2018-10-05T13:32:16.270Z,5.53
2018-10-05T13:35:19.745Z,5.72
2018-10-05T13:38:23.224Z,8.53
2018-10-05T13:41:26.768Z,5.70
2018-10-05T13:44:30.411Z,8.48
2018-10-05T13:47:33.845Z,4.30
2018-10-05T13:50:37.415Z,5.28
2018-10-05T13:53:40.940Z,6.60
2018-10-05T13:56:44.425Z,4.40
2018-10-05T13:59:48.498Z,5.97
2018-10-05T14:02:51.987Z,7.13
2018-10-05T14:05:55.605Z,7.47
2018-10-05T14:08:59.084Z,12.60
2018-10-05T14:12:02.711Z,7.70
2018-10-05T14:15:06.214Z,8.67
2018-10-05T14:18:09.757Z,4.77
2018-10-05T14:21:13.213Z,5.13
2018-10-05T14:24:16.673Z,4.37
2018-10-05T14:27:20.093Z,5.97
2018-10-05T14:30:23.568Z,5.60
2018-10-05T14:33:27.008Z,4.83
2018-10-05T14:36:30.482Z,6.75
2018-10-05T14:39:33.972Z,4.92
2018-10-05T14:42:37.354Z,6.87
2018-10-05T14:45:40.955Z,6.17
2018-10-05T14:48:44.423Z,5.67
2018-10-05T14:51:47.854Z,5.63
2018-10-05T14:54:51.765Z,4.10
2018-10-05T14:57:55.267Z,5.37
2018-10-05T15:00:58.691Z,5.25
2018-10-05T15:04:02.199Z,6.45
2018-10-05T15:07:06.479Z,11.38
2018-10-05T15:10:10.433Z,5.73
2018-10-05T15:13:13.963Z,4.25
2018-10-05T15:16:17.321Z,4.30
2018-10-05T15:19:20.716Z,7.03
2018-10-05T15:22:24.236Z,8.10
2018-10-05T15:25:27.841Z,6.30
2018-10-05T15:28:31.230Z,5.70
2018-10-05T15:31:35.816Z,4.70
2018-10-05T15:34:39.279Z,6.83
2018-10-05T15:37:42.693Z,5.83
2018-10-05T15:40:46.047Z,7.60
2018-10-05T15:43:49.442Z,6.05
2018-10-05T15:46:59.791Z,5.70
2018-10-05T15:50:03.310Z,8.40
2018-10-05T15:53:06.724Z,5.40
2018-10-05T15:56:10.173Z,5.45
2018-10-05T15:59:13.602Z,5.47
2018-10-05T16:02:17.116Z,3.60
2018-10-05T16:05:20.612Z,5.15
2018-10-05T16:08:24.129Z,5.22
2018-10-05T16:11:27.736Z,5.83
2018-10-05T16:14:31.290Z,6.20
2018-10-05T16:17:34.837Z,6.07
2018-10-05T16:20:38.437Z,6.28
2018-10-05T16:23:42.080Z,5.95
2018-10-05T16:26:45.562Z,6.10
2018-10-05T16:29:49.056Z,5.33
2018-10-05T16:32:52.556Z,5.50
2018-10-05T16:35:56.122Z,6.45
2018-10-05T16:39:00.657Z,10.35
2018-10-05T16:42:04.290Z,6.67
2018-10-05T16:45:07.864Z,6.23
2018-10-05T16:48:11.399Z,10.10
2018-10-05T16:51:14.882Z,9.67
2018-10-05T16:54:18.420Z,5.53
2018-10-05T16:57:21.995Z,5.93
2018-10-05T17:00:25.488Z,8.03
2018-10-05T17:03:29.169Z,9.77
2018-10-05T17:06:32.675Z,14.58
2018-10-05T17:09:36.216Z,6.37
2018-10-05T17:12:39.931Z,4.70
2018-10-05T17:15:43.412Z,13.00
2018-10-05T17:18:47.657Z,10.72
2018-10-05T17:21:51.257Z,5.87
2018-10-05T17:24:54.797Z,5.53
2018-10-05T17:27:58.241Z,9.43
2018-10-05T17:31:01.870Z,11.23
2018-10-05T17:34:05.447Z,17.12
2018-10-05T17:37:09.094Z,6.90
2018-10-05T17:40:12.580Z,11.08
2018-10-05T17:43:17.293Z,11.13
2018-10-05T17:46:20.865Z,8.80
2018-10-05T17:49:24.298Z,14.37
2018-10-05T17:52:27.762Z,26.87
2018-10-05T17:55:31.505Z,8.93
2018-10-05T17:58:34.866Z,14.30
2018-10-05T18:01:38.416Z,11.45
2018-10-05T18:04:42.081Z,14.33
2018-10-05T18:07:45.694Z,15.13
2018-10-05T18:10:49.166Z,10.43
2018-10-05T18:13:52.631Z,12.83
2018-10-05T18:16:56.124Z,13.80
2018-10-05T18:19:59.706Z,9.70
2018-10-05T18:23:03.141Z,13.23
2018-10-05T18:26:06.878Z,19.85
2018-10-05T18:29:10.350Z,12.63
2018-10-05T18:32:13.846Z,11.83
2018-10-05T18:35:17.309Z,17.92
2018-10-05T18:38:20.784Z,10.53
2018-10-05T18:41:24.412Z,10.05
2018-10-05T18:44:27.765Z,14.57
2018-10-05T18:47:31.264Z,19.23
2018-10-05T18:50:34.850Z,18.65
2018-10-05T18:53:38.272Z,19.40
2018-10-05T18:56:53.183Z,19.82
2018-10-05T18:59:56.649Z,14.83
2018-10-05T19:03:00.188Z,11.40
2018-10-05T19:06:03.660Z,16.12
2018-10-05T19:09:07.575Z,12.28
2018-10-05T19:12:12.027Z,9.73
2018-10-05T19:15:15.885Z,11.83
2018-10-05T19:18:19.612Z,11.18
2018-10-05T19:21:23.115Z,8.00
2018-10-05T19:24:26.857Z,11.10
2018-10-05T19:27:30.325Z,10.90
2018-10-05T19:30:33.948Z,9.33
2018-10-05T19:33:37.405Z,10.73
2018-10-05T19:36:40.931Z,8.35
2018-10-05T19:39:44.352Z,8.10
2018-10-05T19:42:47.946Z,7.83
2018-10-05T19:45:51.437Z,12.80
2018-10-05T19:48:55.156Z,8.35
2018-10-05T19:51:59.000Z,10.48
2018-10-05T19:55:02.520Z,9.30
2018-10-05T19:58:06.020Z,10.08
2018-10-05T20:01:09.531Z,11.57
2018-10-05T20:04:13.086Z,9.03
2018-10-05T20:07:16.613Z,8.98
2018-10-05T20:10:20.314Z,10.17
2018-10-05T20:13:24.027Z,8.20
2018-10-05T20:16:27.546Z,9.83
2018-10-05T20:19:31.289Z,12.93
2018-10-05T20:22:35.088Z,9.47
2018-10-05T20:25:38.618Z,8.77
2018-10-05T20:28:42.204Z,8.27
2018-10-05T20:31:45.727Z,9.27
2018-10-05T20:34:49.143Z,10.78
2018-10-05T20:37:52.730Z,8.28
2018-10-05T20:40:56.659Z,8.85
2018-10-05T20:44:00.243Z,8.17
2018-10-05T20:47:03.707Z,7.20
2018-10-05T20:50:07.228Z,11.95
2018-10-05T20:53:10.731Z,8.98
2018-10-05T20:56:14.441Z,8.70
2018-10-05T20:59:17.941Z,8.47
2018-10-05T21:02:21.389Z,10.90
2018-10-05T21:05:25.039Z,6.78
2018-10-05T21:08:28.581Z,9.67
2018-10-05T21:11:32.202Z,7.60
2018-10-05T21:14:35.741Z,7.22
2018-10-05T21:17:39.207Z,10.23
2018-10-05T21:20:42.756Z,10.70
2018-10-05T21:23:46.498Z,10.00
2018-10-05T21:26:49.961Z,9.13
2018-10-05T21:29:53.489Z,10.47
2018-10-05T21:32:57.041Z,7.07
2018-10-05T21:36:00.437Z,9.03
2018-10-05T21:39:06.244Z,9.73
2018-10-05T21:42:09.694Z,8.37
2018-10-05T21:45:13.203Z,8.37
2018-10-05T21:48:16.898Z,8.50
2018-10-05T21:51:20.495Z,7.05
2018-10-05T21:54:24.081Z,8.05
2018-10-05T21:57:27.614Z,10.50
2018-10-05T22:00:37.406Z,8.78
2018-10-05T22:03:45.303Z,9.43
2018-10-05T22:06:48.822Z,7.30
2018-10-05T22:09:52.366Z,7.83
2018-10-05T22:12:55.829Z,8.77
2018-10-05T22:15:59.329Z,10.50
2018-10-05T22:19:02.837Z,6.83
2018-10-05T22:22:06.334Z,7.97
2018-10-05T22:25:09.853Z,8.93
2018-10-05T22:28:13.495Z,8.58
2018-10-05T22:31:16.949Z,7.77
2018-10-05T22:34:20.528Z,7.63
2018-10-05T22:37:24.049Z,6.20
2018-10-05T22:40:27.587Z,9.13
2018-10-05T22:43:31.355Z,9.18
2018-10-05T22:46:34.865Z,8.85
2018-10-05T22:49:38.379Z,8.53
2018-10-05T22:52:42.010Z,7.73
2018-10-05T22:55:45.521Z,8.67
2018-10-05T22:58:48.974Z,7.07
2018-10-05T23:01:52.600Z,8.33
2018-10-05T23:04:56.073Z,7.87
2018-10-05T23:07:59.590Z,11.53
2018-10-05T23:11:04.120Z,10.10
2018-10-05T23:14:07.832Z,6.60
2018-10-05T23:17:11.340Z,7.67
2018-10-05T23:20:14.846Z,7.47
2018-10-05T23:23:18.305Z,8.33
2018-10-05T23:26:21.828Z,7.47
2018-10-05T23:29:25.309Z,11.63
2018-10-05T23:32:28.955Z,9.30
2018-10-05T23:35:32.414Z,7.83
2018-10-05T23:38:35.935Z,8.33
2018-10-05T23:41:39.570Z,6.97
2018-10-05T23:44:43.056Z,7.60
2018-10-05T23:47:46.769Z,8.63
2018-10-05T23:50:50.237Z,8.03
2018-10-05T23:53:53.760Z,7.60
2018-10-05T23:56:57.242Z,9.20
